Time;durP1;ratioP1;P1;durP2;ratioP2;P2;SDS_P1;SDS_P2;PMS_P1;PMS_P2;Temp;Humidity;BMP_temperature;BMP_pressure;BME280_temperature;BME280_humidity;BME280_pressure;Samples;Min_cycle;Max_cycle;Signal;HPM_P1;HPM_P2
2022/02/07 00:02:04;;;;;;;0.20;0.20;;;;;;;;;;5012218;28;20046;-77
2022/02/07 00:04:34;;;;;;;0.47;0.30;;;;;;;;;;5012724;28;20077;-78
2022/02/07 00:07:02;;;;;;;0.85;0.40;;;;;;;;;;5012420;28;20129;-78
2022/02/07 00:09:32;;;;;;;1.35;0.20;;;;;;;;;;5012656;28;20112;-77
2022/02/07 00:11:58;;;;;;;0.20;0.20;;;;;;;;;;5012530;28;20531;-77
2022/02/07 00:14:25;;;;;;;0.20;0.20;;;;;;;;;;5014889;28;20044;-78
2022/02/07 00:16:52;;;;;;;0.75;0.25;;;;;;;;;;5024541;28;20042;-78
2022/02/07 00:19:23;;;;;;;0.30;0.30;;;;;;;;;;5025448;28;20046;-77
2022/02/07 00:21:50;;;;;;;0.40;0.30;;;;;;;;;;5027367;28;20692;-78
2022/02/07 00:24:17;;;;;;;0.30;0.30;;;;;;;;;;5022016;28;20050;-78
2022/02/07 00:26:46;;;;;;;0.20;0.20;;;;;;;;;;5015947;28;20046;-78
2022/02/07 00:29:14;;;;;;;0.20;0.20;;;;;;;;;;5030450;22;20112;-80
2022/02/07 00:31:41;;;;;;;0.40;0.20;;;;;;;;;;5057822;28;20077;-80
2022/02/07 00:34:08;;;;;;;0.55;0.28;;;;;;;;;;5059537;28;20052;-80
2022/02/07 00:36:35;;;;;;;0.30;0.30;;;;;;;;;;5059205;28;20045;-79
2022/02/07 00:39:08;;;;;;;0.30;0.28;;;;;;;;;;5059985;28;20060;-79
2022/02/07 00:41:41;;;;;;;0.30;0.30;;;;;;;;;;5065559;28;20052;-80
2022/02/07 00:44:15;;;;;;;1.25;0.40;;;;;;;;;;5071813;28;20053;-80
2022/02/07 00:46:49;;;;;;;0.28;0.28;;;;;;;;;;5064738;28;20513;-80
2022/02/07 00:49:16;;;;;;;0.45;0.30;;;;;;;;;;5059371;28;20049;-81
2022/02/07 00:51:43;;;;;;;0.20;0.20;;;;;;;;;;5059256;28;20072;-80
2022/02/07 00:54:10;;;;;;;0.75;0.30;;;;;;;;;;5061774;28;20128;-82
2022/02/07 00:56:37;;;;;;;0.30;0.28;;;;;;;;;;5059414;28;20052;-80
2022/02/07 00:59:05;;;;;;;0.90;0.20;;;;;;;;;;5065925;28;20147;-80
2022/02/07 01:01:33;;;;;;;0.20;0.20;;;;;;;;;;5073487;28;20049;-79
2022/02/07 01:04:01;;;;;;;0.30;0.30;;;;;;;;;;5066670;28;20053;-80
2022/02/07 01:06:28;;;;;;;1.10;0.30;;;;;;;;;;5064667;28;20048;-79
2022/02/07 01:09:09;;;;;;;0.43;0.32;;;;;;;;;;5072906;28;20056;-79
2022/02/07 01:11:50;;;;;;;0.20;0.20;;;;;;;;;;5068170;28;20044;-79
2022/02/07 01:14:28;;;;;;;1.58;0.35;;;;;;;;;;5067169;28;20075;-81
2022/02/07 01:17:41;;;;;;;0.30;0.30;;;;;;;;;;5058629;28;20557;-80
2022/02/07 01:20:15;;;;;;;0.30;0.30;;;;;;;;;;5067372;28;20105;-80
2022/02/07 01:53:03;;;;;;;0.30;0.30;;;;;;;;;;5024406;28;20048;-80
2022/02/07 01:55:36;;;;;;;0.55;0.40;;;;;;;;;;5069293;28;20056;-79
2022/02/07 01:58:04;;;;;;;0.40;0.30;;;;;;;;;;5059302;28;20053;-80
2022/02/07 02:00:30;;;;;;;0.40;0.40;;;;;;;;;;5062000;28;20061;-80
2022/02/07 02:02:58;;;;;;;0.98;0.50;;;;;;;;;;5057162;28;20508;-80
2022/02/07 02:05:30;;;;;;;0.70;0.40;;;;;;;;;;5063811;28;20053;-80
2022/02/07 02:07:57;;;;;;;0.68;0.40;;;;;;;;;;5056389;28;20057;-81
2022/02/07 02:10:24;;;;;;;0.88;0.50;;;;;;;;;;5061977;28;20118;-80
2022/02/07 02:12:58;;;;;;;0.55;0.40;;;;;;;;;;5056919;28;20057;-81
2022/02/07 02:15:36;;;;;;;0.32;0.30;;;;;;;;;;5066817;28;20140;-79
2022/02/07 02:32:55;;;;;;;0.40;0.30;;;;;;;;;;5074128;28;20481;-80
2022/02/07 02:38:13;;;;;;;0.50;0.30;;;;;;;;;;5068784;28;20099;-80
2022/02/07 02:46:15;;;;;;;0.30;0.30;;;;;;;;;;5053560;28;20051;-78
2022/02/07 02:48:43;;;;;;;0.30;0.30;;;;;;;;;;5053563;28;20055;-79
2022/02/07 02:51:10;;;;;;;0.40;0.30;;;;;;;;;;5054424;28;20053;-79
2022/02/07 02:53:37;;;;;;;0.47;0.30;;;;;;;;;;5055322;28;20053;-79
2022/02/07 02:56:06;;;;;;;0.30;0.30;;;;;;;;;;5056648;28;20060;-79
2022/02/07 02:58:32;;;;;;;0.40;0.30;;;;;;;;;;5056275;28;20053;-79
2022/02/07 03:01:00;;;;;;;0.32;0.32;;;;;;;;;;5053543;28;20053;-79
2022/02/07 03:03:27;;;;;;;0.20;0.20;;;;;;;;;;5054473;28;20052;-78
2022/02/07 03:05:53;;;;;;;0.40;0.30;;;;;;;;;;5052981;28;20526;-78
2022/02/07 03:08:20;;;;;;;0.30;0.25;;;;;;;;;;5056636;28;20045;-79
2022/02/07 03:10:59;;;;;;;0.35;0.28;;;;;;;;;;5062711;28;20500;-78
2022/02/07 03:18:59;;;;;;;0.95;0.22;;;;;;;;;;5063229;28;20063;-78
2022/02/07 03:21:26;;;;;;;0.32;0.30;;;;;;;;;;5058430;28;20049;-79
2022/02/07 03:23:53;;;;;;;0.40;0.30;;;;;;;;;;5057186;28;20045;-79
2022/02/07 03:26:20;;;;;;;0.73;0.43;;;;;;;;;;5054971;28;20052;-79
2022/02/07 03:28:49;;;;;;;0.82;0.40;;;;;;;;;;5056372;28;20053;-78
2022/02/07 03:31:16;;;;;;;0.88;0.47;;;;;;;;;;5066154;28;20063;-78
2022/02/07 03:33:43;;;;;;;0.40;0.30;;;;;;;;;;5067566;28;20120;-78
2022/02/07 03:36:11;;;;;;;0.45;0.35;;;;;;;;;;5067051;28;20053;-78
2022/02/07 03:38:38;;;;;;;1.02;0.40;;;;;;;;;;5065150;28;20049;-79
2022/02/07 03:41:05;;;;;;;0.30;0.30;;;;;;;;;;5055708;28;20483;-79
2022/02/07 03:43:32;;;;;;;0.95;0.40;;;;;;;;;;5061131;28;20052;-78
2022/02/07 03:46:01;;;;;;;0.30;0.30;;;;;;;;;;5061185;28;20110;-80
2022/02/07 03:48:29;;;;;;;0.30;0.30;;;;;;;;;;5052719;28;20049;-79
2022/02/07 03:50:59;;;;;;;0.30;0.30;;;;;;;;;;5056535;28;20119;-79
2022/02/07 03:53:26;;;;;;;1.45;0.38;;;;;;;;;;5057537;28;20055;-80
2022/02/07 03:55:53;;;;;;;0.63;0.40;;;;;;;;;;5057503;28;20524;-80
2022/02/07 03:58:21;;;;;;;0.45;0.40;;;;;;;;;;5057208;28;20056;-80
2022/02/07 04:00:48;;;;;;;0.80;0.45;;;;;;;;;;5057087;28;20102;-79
2022/02/07 04:03:18;;;;;;;1.75;0.68;;;;;;;;;;5057166;28;20049;-79
2022/02/07 04:05:49;;;;;;;1.73;0.40;;;;;;;;;;5057619;28;20049;-79
2022/02/07 04:08:17;;;;;;;;;;;;;;;;;;5057078;28;20487;-79
2022/02/07 04:10:55;;;;;;;1.42;0.50;;;;;;;;;;5056857;28;19928;-79
2022/02/07 04:13:28;;;;;;;1.27;0.50;;;;;;;;;;5056906;28;20081;-79
2022/02/07 04:15:56;;;;;;;2.17;0.80;;;;;;;;;;5057125;28;20143;-80
2022/02/07 04:18:27;;;;;;;0.73;0.50;;;;;;;;;;5056592;28;20170;-80
2022/02/07 04:20:54;;;;;;;0.43;0.40;;;;;;;;;;5056486;28;20403;-80
2022/02/07 04:23:22;;;;;;;1.58;0.57;;;;;;;;;;5056812;28;20512;-80
2022/02/07 04:25:49;;;;;;;0.95;0.50;;;;;;;;;;5056669;28;20504;-80
2022/02/07 04:28:17;;;;;;;1.88;0.63;;;;;;;;;;5055958;28;20053;-80
2022/02/07 04:30:44;;;;;;;3.92;0.70;;;;;;;;;;5058281;28;20052;-79
2022/02/07 04:33:11;;;;;;;1.35;0.52;;;;;;;;;;5059276;28;20207;-79
2022/02/07 04:35:39;;;;;;;1.63;0.80;;;;;;;;;;5057553;28;20053;-79
2022/02/07 04:38:06;;;;;;;1.40;0.70;;;;;;;;;;5056699;28;20052;-79
2022/02/07 04:40:33;;;;;;;0.73;0.50;;;;;;;;;;5056690;28;20044;-79
2022/02/07 04:43:00;;;;;;;1.05;0.68;;;;;;;;;;5056318;28;20045;-79
2022/02/07 04:45:41;;;;;;;1.30;0.63;;;;;;;;;;5056416;28;20427;-79
2022/02/07 04:48:32;;;;;;;1.30;0.65;;;;;;;;;;5056175;28;20045;-79
2022/02/07 04:51:38;;;;;;;;;;;;;;;;;;5061170;28;20045;-78
2022/02/07 04:59:48;;;;;;;3.35;0.65;;;;;;;;;;5037739;28;20173;-79
2022/02/07 05:02:22;;;;;;;2.85;1.08;;;;;;;;;;5069382;28;20049;-79
2022/02/07 05:04:56;;;;;;;4.00;0.90;;;;;;;;;;5065029;28;20057;-78
2022/02/07 05:15:37;;;;;;;1.55;0.75;;;;;;;;;;5063699;28;20107;-78
2022/02/07 05:18:05;;;;;;;2.03;0.98;;;;;;;;;;5062310;28;20052;-78
2022/02/07 05:20:32;;;;;;;1.58;0.73;;;;;;;;;;5063609;28;20057;-78
2022/02/07 05:23:01;;;;;;;2.40;0.95;;;;;;;;;;5063563;28;20045;-78
2022/02/07 05:25:28;;;;;;;2.92;0.95;;;;;;;;;;5063459;28;20052;-78
2022/02/07 05:27:54;;;;;;;3.08;0.90;;;;;;;;;;5061468;28;20511;-78
2022/02/07 05:30:21;;;;;;;5.55;0.90;;;;;;;;;;5058100;28;20436;-79
2022/02/07 05:32:48;;;;;;;3.38;1.52;;;;;;;;;;5058941;28;20045;-78
2022/02/07 05:35:15;;;;;;;1.77;0.75;;;;;;;;;;5058310;28;20045;-78
2022/02/07 05:37:42;;;;;;;2.28;0.90;;;;;;;;;;5056194;28;20041;-78
2022/02/07 05:40:17;;;;;;;3.28;0.75;;;;;;;;;;5058579;28;20049;-77
2022/02/07 05:42:44;;;;;;;1.67;0.75;;;;;;;;;;5060197;28;20049;-78
2022/02/07 05:45:11;;;;;;;2.92;0.90;;;;;;;;;;5061246;28;20049;-78
2022/02/07 05:47:38;;;;;;;2.15;1.08;;;;;;;;;;5059872;28;20524;-78
2022/02/07 05:50:06;;;;;;;1.60;1.10;;;;;;;;;;5062354;28;20099;-78
2022/02/07 05:52:33;;;;;;;2.70;0.80;;;;;;;;;;5062057;28;20052;-78
2022/02/07 05:54:59;;;;;;;2.13;0.70;;;;;;;;;;5062554;28;20044;-78
2022/02/07 05:57:28;;;;;;;4.45;0.90;;;;;;;;;;5070471;28;20043;-78
2022/02/07 05:59:55;;;;;;;2.83;0.95;;;;;;;;;;5076914;28;20037;-79
2022/02/07 06:02:21;;;;;;;2.65;1.05;;;;;;;;;;5076873;28;20053;-78
2022/02/07 06:04:48;;;;;;;1.92;0.82;;;;;;;;;;5073863;28;20049;-78
2022/02/07 06:07:15;;;;;;;4.18;1.00;;;;;;;;;;5058463;28;20041;-78
2022/02/07 06:09:42;;;;;;;3.88;1.02;;;;;;;;;;5058962;28;20056;-78
2022/02/07 06:12:09;;;;;;;0.98;0.60;;;;;;;;;;5060671;28;20048;-79
2022/02/07 06:14:38;;;;;;;2.88;0.77;;;;;;;;;;5062233;28;20104;-78
2022/02/07 06:17:05;;;;;;;4.15;1.30;;;;;;;;;;5061563;28;20052;-78
2022/02/07 06:19:32;;;;;;;2.15;0.90;;;;;;;;;;5062570;28;20056;-78
2022/02/07 06:21:59;;;;;;;4.00;1.58;;;;;;;;;;5061218;28;20049;-78
2022/02/07 06:24:26;;;;;;;2.78;1.10;;;;;;;;;;5060940;28;20049;-78
2022/02/07 06:26:52;;;;;;;3.17;1.00;;;;;;;;;;5061482;28;20044;-79
2022/02/07 06:29:19;;;;;;;2.85;0.90;;;;;;;;;;5063715;28;20128;-78
2022/02/07 06:31:48;;;;;;;2.08;1.02;;;;;;;;;;5069370;22;20045;-80
2022/02/07 06:34:15;;;;;;;3.78;0.90;;;;;;;;;;5061886;28;20049;-79
2022/02/07 06:36:42;;;;;;;3.75;0.73;;;;;;;;;;5059657;28;20048;-79
2022/02/07 06:39:09;;;;;;;2.55;0.77;;;;;;;;;;5060082;28;20423;-80
2022/02/07 06:41:35;;;;;;;2.20;0.82;;;;;;;;;;5060052;28;20094;-80
2022/02/07 06:44:05;;;;;;;2.15;0.90;;;;;;;;;;5059873;28;20049;-80
2022/02/07 06:46:32;;;;;;;1.63;0.90;;;;;;;;;;5057778;28;20098;-79
2022/02/07 06:49:00;;;;;;;3.13;0.90;;;;;;;;;;5053032;28;20055;-78
2022/02/07 06:51:27;;;;;;;4.25;0.90;;;;;;;;;;5052451;28;20491;-79
2022/02/07 06:53:54;;;;;;;2.95;1.13;;;;;;;;;;5052660;28;20047;-79
2022/02/07 06:56:21;;;;;;;2.72;1.00;;;;;;;;;;5052758;28;20053;-79
2022/02/07 06:58:48;;;;;;;1.83;0.80;;;;;;;;;;5033437;28;20050;-79
2022/02/07 07:01:15;;;;;;;3.38;0.93;;;;;;;;;;5012966;28;20057;-79
2022/02/07 07:03:45;;;;;;;3.78;0.90;;;;;;;;;;5013141;28;20045;-79
2022/02/07 07:06:14;;;;;;;3.42;1.13;;;;;;;;;;5013357;28;20430;-79
2022/02/07 07:08:45;;;;;;;4.65;1.42;;;;;;;;;;5013423;28;20054;-78
2022/02/07 07:11:14;;;;;;;5.40;1.25;;;;;;;;;;5014805;28;20120;-79
2022/02/07 07:13:46;;;;;;;8.10;1.45;;;;;;;;;;5015970;28;20058;-80
2022/02/07 07:16:36;;;;;;;4.75;1.20;;;;;;;;;;5015790;28;20056;-79
2022/02/07 07:19:03;;;;;;;4.97;1.58;;;;;;;;;;5015952;28;20130;-79
2022/02/07 07:21:32;;;;;;;3.60;1.27;;;;;;;;;;5021471;28;20053;-78
2022/02/07 07:23:59;;;;;;;3.50;1.00;;;;;;;;;;5025200;28;20060;-78
2022/02/07 07:26:29;;;;;;;3.17;1.25;;;;;;;;;;5024956;28;20049;-77
2022/02/07 07:28:57;;;;;;;5.38;1.10;;;;;;;;;;5016314;28;20077;-79
2022/02/07 07:31:26;;;;;;;2.40;1.33;;;;;;;;;;5020391;28;20101;-77
2022/02/07 07:33:53;;;;;;;3.33;1.08;;;;;;;;;;5035803;28;20491;-78
2022/02/07 07:36:21;;;;;;;2.47;1.20;;;;;;;;;;5037765;28;20077;-77
2022/02/07 07:38:49;;;;;;;4.97;1.17;;;;;;;;;;5036397;28;20065;-79
2022/02/07 07:41:18;;;;;;;2.80;1.10;;;;;;;;;;5042434;28;20068;-76
2022/02/07 07:43:48;;;;;;;2.33;1.00;;;;;;;;;;5042427;28;20072;-80
2022/02/07 07:46:17;;;;;;;2.37;1.10;;;;;;;;;;5029912;28;20045;-79
2022/02/07 07:48:50;;;;;;;3.38;1.10;;;;;;;;;;5029454;28;20093;-80
2022/02/07 07:51:28;;;;;;;3.42;0.98;;;;;;;;;;5029144;28;20045;-80
2022/02/07 07:54:15;;;;;;;2.20;0.90;;;;;;;;;;5024758;28;20054;-80
2022/02/07 08:02:13;;;;;;;3.50;1.20;;;;;;;;;;5023448;28;20065;-79
2022/02/07 08:04:42;;;;;;;3.08;1.08;;;;;;;;;;5023265;28;20512;-80
2022/02/07 08:07:16;;;;;;;5.70;1.17;;;;;;;;;;5028386;28;20556;-79
2022/02/07 08:10:00;;;;;;;5.15;1.00;;;;;;;;;;5025474;28;20044;-80
2022/02/07 08:12:29;;;;;;;4.10;0.93;;;;;;;;;;5026003;28;20046;-78
2022/02/07 08:14:56;;;;;;;4.13;1.38;;;;;;;;;;5023827;28;20038;-78
2022/02/07 08:17:24;;;;;;;4.05;1.38;;;;;;;;;;5025214;28;20048;-80
2022/02/07 08:19:51;;;;;;;4.30;0.82;;;;;;;;;;5026732;28;20054;-80
2022/02/07 08:22:19;;;;;;;3.50;1.15;;;;;;;;;;5024389;28;20069;-79
2022/02/07 08:24:47;;;;;;;4.68;1.10;;;;;;;;;;5027795;28;20058;-78
2022/02/07 08:27:15;;;;;;;4.90;1.30;;;;;;;;;;5023914;28;20056;-80
2022/02/07 08:29:42;;;;;;;4.97;1.45;;;;;;;;;;5026345;28;20046;-80
2022/02/07 08:32:09;;;;;;;8.68;1.98;;;;;;;;;;5025728;28;20053;-78
2022/02/07 08:34:36;;;;;;;4.60;1.50;;;;;;;;;;5024461;28;20052;-78
2022/02/07 08:37:03;;;;;;;5.72;1.13;;;;;;;;;;5031486;28;20049;-77
2022/02/07 08:39:30;;;;;;;3.45;1.30;;;;;;;;;;5026508;28;20106;-80
2022/02/07 08:41:58;;;;;;;3.25;1.00;;;;;;;;;;5030061;28;20523;-80
2022/02/07 08:44:26;;;;;;;7.07;2.22;;;;;;;;;;5017397;28;20076;-79
2022/02/07 08:46:53;;;;;;;4.43;1.70;;;;;;;;;;5028103;28;20042;-79
2022/02/07 08:49:20;;;;;;;5.68;1.45;;;;;;;;;;5032761;28;20050;-80
2022/02/07 08:51:47;;;;;;;6.03;1.75;;;;;;;;;;5030049;28;20220;-78
2022/02/07 08:54:20;;;;;;;7.93;1.50;;;;;;;;;;5031721;28;20038;-80
2022/02/07 08:56:51;;;;;;;2.75;1.20;;;;;;;;;;5028743;28;20112;-80
2022/02/07 08:59:22;;;;;;;2.92;1.38;;;;;;;;;;5033974;28;20049;-79
2022/02/07 09:01:55;;;;;;;5.78;1.55;;;;;;;;;;5028040;28;20069;-80
2022/02/07 09:07:24;;;;;;;3.83;1.30;;;;;;;;;;4986647;28;20047;-79
2022/02/07 09:09:53;;;;;;;4.65;1.60;;;;;;;;;;5031217;28;20456;-86
2022/02/07 09:12:20;;;;;;;7.75;1.42;;;;;;;;;;5039878;28;20468;-80
2022/02/07 09:14:59;;;;;;;2.33;1.00;;;;;;;;;;5043279;28;20120;-79
2022/02/07 09:17:28;;;;;;;4.38;1.30;;;;;;;;;;5040949;28;20057;-79
2022/02/07 09:19:54;;;;;;;6.70;1.77;;;;;;;;;;5023579;28;20046;-79
2022/02/07 09:22:21;;;;;;;5.68;1.42;;;;;;;;;;5025265;28;20053;-79
2022/02/07 09:24:49;;;;;;;4.82;1.50;;;;;;;;;;5027665;28;20099;-79
2022/02/07 09:27:16;;;;;;;7.00;1.58;;;;;;;;;;5036371;28;20050;-78
2022/02/07 09:29:42;;;;;;;6.40;2.03;;;;;;;;;;5034811;28;20041;-78
2022/02/07 09:32:11;;;;;;;4.75;1.20;;;;;;;;;;5032823;28;20208;-79
2022/02/07 09:34:38;;;;;;;5.72;1.50;;;;;;;;;;5033152;28;20068;-78
2022/02/07 09:37:05;;;;;;;4.63;1.27;;;;;;;;;;5037683;28;20062;-78
2022/02/07 09:39:32;;;;;;;7.25;1.75;;;;;;;;;;5039482;28;20053;-79
2022/02/07 09:42:01;;;;;;;4.28;1.40;;;;;;;;;;5038954;28;20463;-79
2022/02/07 09:44:39;;;;;;;3.65;1.30;;;;;;;;;;5030615;28;20124;-79
2022/02/07 09:47:07;;;;;;;3.15;0.90;;;;;;;;;;5027349;28;20057;-79
2022/02/07 09:49:39;;;;;;;4.13;1.08;;;;;;;;;;5028782;28;20038;-77
2022/02/07 09:52:08;;;;;;;6.22;1.65;;;;;;;;;;5029548;28;20056;-78
2022/02/07 09:54:36;;;;;;;4.63;1.60;;;;;;;;;;5024806;28;20478;-77
2022/02/07 09:57:03;;;;;;;5.70;1.52;;;;;;;;;;5026477;28;20072;-78
2022/02/07 09:59:31;;;;;;;5.60;1.30;;;;;;;;;;5024513;28;20587;-78
2022/02/07 10:02:02;;;;;;;3.75;1.05;;;;;;;;;;5022487;28;20045;-77
2022/02/07 10:04:35;;;;;;;6.10;1.80;;;;;;;;;;5029589;28;20041;-79
2022/02/07 10:07:18;;;;;;;3.72;1.60;;;;;;;;;;5026225;28;20050;-79
2022/02/07 10:10:12;;;;;;;5.20;1.50;;;;;;;;;;5025758;28;20045;-78
2022/02/07 10:12:57;;;;;;;4.93;1.52;;;;;;;;;;5025791;28;20130;-78
2022/02/07 10:15:36;;;;;;;4.35;1.67;;;;;;;;;;5025002;28;20076;-80
2022/02/07 10:18:13;;;;;;;6.55;1.75;;;;;;;;;;5023901;28;20045;-79
2022/02/07 10:40:28;;;;;;;14.07;1.90;;;;;;;;;;5020688;28;20053;-78
2022/02/07 10:43:12;;;;;;;5.93;1.60;;;;;;;;;;5019892;28;20077;-78
2022/02/07 10:45:59;;;;;;;6.78;1.60;;;;;;;;;;5024785;28;20118;-77
2022/02/07 10:48:34;;;;;;;5.68;1.45;;;;;;;;;;5023999;28;20053;-77
2022/02/07 10:51:14;;;;;;;6.15;1.35;;;;;;;;;;5012983;28;20771;-77
2022/02/07 10:53:44;;;;;;;5.72;1.20;;;;;;;;;;5017736;28;20041;-77
2022/02/07 10:56:14;;;;;;;4.88;1.20;;;;;;;;;;5022368;28;20092;-78
2022/02/07 10:58:41;;;;;;;4.85;1.17;;;;;;;;;;5021914;28;20055;-77
2022/02/07 11:01:15;;;;;;;4.43;1.27;;;;;;;;;;5023244;28;20064;-78
2022/02/07 11:03:44;;;;;;;6.90;1.60;;;;;;;;;;5027531;28;20076;-79
2022/02/07 11:06:14;;;;;;;4.13;1.25;;;;;;;;;;5025020;28;20060;-79
2022/02/07 11:14:46;;;;;;;7.45;1.08;;;;;;;;;;5026017;28;20046;-79
2022/02/07 11:17:27;;;;;;;;;;;;;;;;;;5011373;28;20497;-79
2022/02/07 11:20:06;;;;;;;3.65;1.10;;;;;;;;;;5014289;28;19921;-79
2022/02/07 11:22:52;;;;;;;2.95;1.40;;;;;;;;;;5016835;28;20054;-77
2022/02/07 11:25:38;;;;;;;2.88;1.10;;;;;;;;;;5023941;28;20132;-78
2022/02/07 11:28:18;;;;;;;3.00;1.27;;;;;;;;;;5017608;28;20046;-79
2022/02/07 11:30:49;;;;;;;3.78;1.42;;;;;;;;;;5011507;28;20045;-78
2022/02/07 11:33:40;;;;;;;6.88;1.80;;;;;;;;;;5015439;28;20057;-78
2022/02/07 11:36:12;;;;;;;5.80;1.42;;;;;;;;;;5015389;28;20060;-81
2022/02/07 11:38:58;;;;;;;6.45;1.45;;;;;;;;;;5020533;28;20061;-78
2022/02/07 11:41:25;;;;;;;4.57;1.15;;;;;;;;;;5026830;28;20059;-78
2022/02/07 11:43:54;;;;;;;3.47;1.10;;;;;;;;;;5023223;28;20099;-79
2022/02/07 11:46:23;;;;;;;6.35;1.15;;;;;;;;;;5040746;28;20053;-78
2022/02/07 11:48:51;;;;;;;7.68;1.38;;;;;;;;;;5036244;28;20049;-77
2022/02/07 11:51:20;;;;;;;5.13;1.40;;;;;;;;;;5037115;28;20115;-79
2022/02/07 11:53:50;;;;;;;9.27;1.58;;;;;;;;;;5035433;28;20049;-80
2022/02/07 11:56:23;;;;;;;6.68;1.70;;;;;;;;;;5037369;28;20117;-79
2022/02/07 11:59:17;;;;;;;5.35;1.40;;;;;;;;;;5034914;28;20686;-77
2022/02/07 12:01:52;;;;;;;4.20;1.17;;;;;;;;;;5034639;28;20055;-78
2022/02/07 12:04:37;;;;;;;3.97;1.00;;;;;;;;;;5037716;28;20148;-80
2022/02/07 12:07:20;;;;;;;7.93;1.65;;;;;;;;;;5041760;28;20048;-78
2022/02/07 12:10:25;;;;;;;3.80;1.33;;;;;;;;;;5037667;28;20045;-79
2022/02/07 12:12:52;;;;;;;6.85;1.27;;;;;;;;;;5028964;28;20049;-78
2022/02/07 12:15:30;;;;;;;6.70;1.58;;;;;;;;;;5034348;28;20053;-78
2022/02/07 12:17:59;;;;;;;6.72;1.55;;;;;;;;;;5034315;28;20103;-79
2022/02/07 12:20:31;;;;;;;4.07;1.13;;;;;;;;;;5035074;28;20076;-76
2022/02/07 12:22:59;;;;;;;6.47;1.30;;;;;;;;;;5034575;28;20042;-77
2022/02/07 12:25:45;;;;;;;4.60;1.10;;;;;;;;;;5034085;28;20046;-77
2022/02/07 12:28:16;;;;;;;4.90;1.27;;;;;;;;;;5036016;28;20455;-77
2022/02/07 12:30:48;;;;;;;5.90;1.20;;;;;;;;;;5033691;28;20080;-77
2022/02/07 12:33:17;;;;;;;7.38;1.52;;;;;;;;;;5034793;28;20052;-76
2022/02/07 12:35:45;;;;;;;2.40;1.10;;;;;;;;;;5036941;28;20136;-78
2022/02/07 12:38:13;;;;;;;4.30;1.30;;;;;;;;;;5038331;28;20050;-77
2022/02/07 12:40:40;;;;;;;8.27;1.92;;;;;;;;;;5034820;28;20096;-77
2022/02/07 12:43:11;;;;;;;6.18;1.30;;;;;;;;;;5034143;28;20056;-77
2022/02/07 12:45:39;;;;;;;;;;;;;;;;;;5033380;28;20081;-78
2022/02/07 12:48:13;;;;;;;8.02;1.48;;;;;;;;;;5032795;28;19927;-77
2022/02/07 12:50:40;;;;;;;3.35;1.10;;;;;;;;;;5014562;28;20057;-77
2022/02/07 12:53:07;;;;;;;3.75;1.20;;;;;;;;;;5019709;28;20050;-79
2022/02/07 12:55:35;;;;;;;7.15;1.45;;;;;;;;;;5023474;28;20440;-79
2022/02/07 12:58:03;;;;;;;5.93;2.03;;;;;;;;;;5038524;28;20053;-78
2022/02/07 13:00:30;;;;;;;5.85;2.65;;;;;;;;;;5033806;28;20054;-77
2022/02/07 13:02:57;;;;;;;4.13;1.70;;;;;;;;;;5033910;28;20049;-78
2022/02/07 13:05:26;;;;;;;3.13;1.40;;;;;;;;;;5035609;28;20053;-78
2022/02/07 13:07:53;;;;;;;3.78;1.17;;;;;;;;;;5045725;28;20060;-77
2022/02/07 13:10:23;;;;;;;7.65;1.80;;;;;;;;;;5044424;28;20212;-78
2022/02/07 13:13:05;;;;;;;3.97;1.52;;;;;;;;;;5055047;28;20101;-77
2022/02/07 13:15:35;;;;;;;6.40;2.22;;;;;;;;;;5053258;28;20045;-79
2022/02/07 13:18:08;;;;;;;5.72;2.03;;;;;;;;;;5041812;28;20052;-78
2022/02/07 13:20:38;;;;;;;8.13;2.58;;;;;;;;;;5034233;28;20077;-79
2022/02/07 13:23:10;;;;;;;5.60;1.98;;;;;;;;;;5032298;28;20050;-79
2022/02/07 13:25:42;;;;;;;5.95;1.50;;;;;;;;;;5035443;28;20057;-79
2022/02/07 13:28:14;;;;;;;4.80;1.50;;;;;;;;;;5032361;28;20053;-78
2022/02/07 13:30:42;;;;;;;4.68;1.80;;;;;;;;;;5030879;28;20052;-78
2022/02/07 13:33:09;;;;;;;7.85;1.80;;;;;;;;;;5031949;28;20053;-78
2022/02/07 13:35:39;;;;;;;4.93;1.95;;;;;;;;;;5033997;28;20050;-79
2022/02/07 13:38:07;;;;;;;6.75;2.17;;;;;;;;;;5034964;28;20045;-76
2022/02/07 13:40:42;;;;;;;7.47;2.55;;;;;;;;;;5033744;28;20077;-79
2022/02/07 13:43:19;;;;;;;8.20;2.13;;;;;;;;;;5034561;28;20049;-76
2022/02/07 13:45:49;;;;;;;11.65;3.60;;;;;;;;;;5033450;28;20081;-78
2022/02/07 13:48:18;;;;;;;4.82;2.00;;;;;;;;;;5032066;28;20041;-77
2022/02/07 13:50:50;;;;;;;4.97;1.75;;;;;;;;;;5035981;28;20073;-79
2022/02/07 13:53:18;;;;;;;5.22;1.77;;;;;;;;;;5036484;28;20532;-79
2022/02/07 13:55:48;;;;;;;5.88;2.00;;;;;;;;;;5060184;22;20475;-78
2022/02/07 13:58:17;;;;;;;6.17;2.93;;;;;;;;;;5014986;28;20609;-79
2022/02/07 14:00:58;;;;;;;6.55;2.45;;;;;;;;;;5017680;28;20053;-83
2022/02/07 14:03:28;;;;;;;9.85;2.42;;;;;;;;;;5017344;28;20065;-82
2022/02/07 14:06:00;;;;;;;6.30;2.10;;;;;;;;;;5019731;28;20109;-82
2022/02/07 14:08:36;;;;;;;6.60;2.30;;;;;;;;;;5035832;28;20148;-78
2022/02/07 14:11:05;;;;;;;4.90;1.73;;;;;;;;;;5035697;28;20046;-79
2022/02/07 14:13:32;;;;;;;6.97;1.95;;;;;;;;;;5036300;28;20073;-80
2022/02/07 14:15:59;;;;;;;3.85;1.63;;;;;;;;;;5035728;28;20045;-78
2022/02/07 14:18:28;;;;;;;6.28;2.00;;;;;;;;;;5035701;28;20049;-79
2022/02/07 14:20:56;;;;;;;4.63;1.73;;;;;;;;;;5034924;28;20050;-78
2022/02/07 14:23:23;;;;;;;4.00;1.95;;;;;;;;;;5034529;28;20073;-78
2022/02/07 14:25:58;;;;;;;6.95;2.15;;;;;;;;;;5035055;28;20064;-79
2022/02/07 14:28:26;;;;;;;7.47;1.95;;;;;;;;;;5034339;28;20069;-80
2022/02/07 14:30:53;;;;;;;5.30;2.03;;;;;;;;;;5034939;28;20077;-79
2022/02/07 14:33:20;;;;;;;5.95;2.28;;;;;;;;;;5034368;28;20499;-78
2022/02/07 14:35:47;;;;;;;4.78;1.73;;;;;;;;;;5036495;28;20045;-78
2022/02/07 14:38:15;;;;;;;6.50;2.00;;;;;;;;;;5034707;28;20045;-79
2022/02/07 14:40:43;;;;;;;6.78;2.10;;;;;;;;;;5035165;28;20045;-79
2022/02/07 14:43:14;;;;;;;6.35;1.80;;;;;;;;;;5029178;28;20060;-79
2022/02/07 14:45:53;;;;;;;5.30;1.83;;;;;;;;;;5014495;28;20057;-80
2022/02/07 14:48:20;;;;;;;9.68;2.63;;;;;;;;;;5014658;28;20505;-80
2022/02/07 14:50:47;;;;;;;3.95;1.70;;;;;;;;;;5014974;28;20046;-79
2022/02/07 14:53:15;;;;;;;5.65;2.00;;;;;;;;;;5013738;28;20049;-79
2022/02/07 14:55:43;;;;;;;6.78;2.40;;;;;;;;;;5013537;28;20072;-79
2022/02/07 14:58:10;;;;;;;7.03;2.25;;;;;;;;;;5013631;28;20493;-79
2022/02/07 15:00:38;;;;;;;6.80;1.92;;;;;;;;;;5014804;28;20054;-78
2022/02/07 15:03:06;;;;;;;7.78;1.95;;;;;;;;;;5013246;28;20137;-78
2022/02/07 15:05:34;;;;;;;5.40;2.00;;;;;;;;;;5014447;28;20053;-78
2022/02/07 15:08:02;;;;;;;9.05;2.35;;;;;;;;;;5014032;28;20061;-77
2022/02/07 15:10:33;;;;;;;5.95;1.90;;;;;;;;;;5013983;28;20456;-80
2022/02/07 15:13:00;;;;;;;8.73;1.77;;;;;;;;;;5014143;28;20441;-78
2022/02/07 15:15:27;;;;;;;5.10;2.13;;;;;;;;;;5014070;28;20053;-79
2022/02/07 15:18:02;;;;;;;7.75;2.50;;;;;;;;;;5014117;28;20050;-79
2022/02/07 15:20:29;;;;;;;5.72;2.28;;;;;;;;;;5014478;28;20042;-79
2022/02/07 15:22:56;;;;;;;4.50;1.98;;;;;;;;;;5013936;28;20053;-79
2022/02/07 15:25:29;;;;;;;8.25;1.90;;;;;;;;;;5014283;28;20133;-80
2022/02/07 15:27:59;;;;;;;8.43;2.00;;;;;;;;;;5018349;28;20386;-79
2022/02/07 15:30:29;;;;;;;6.65;1.92;;;;;;;;;;5013994;28;20069;-79
2022/02/07 15:32:59;;;;;;;6.88;2.08;;;;;;;;;;5014598;28;20052;-79
2022/02/07 15:35:26;;;;;;;4.28;1.90;;;;;;;;;;5013577;28;20046;-79
2022/02/07 15:37:52;;;;;;;6.13;2.00;;;;;;;;;;5014981;28;20050;-79
2022/02/07 15:40:22;;;;;;;4.85;2.25;;;;;;;;;;5015291;28;20061;-78
2022/02/07 15:42:49;;;;;;;4.32;2.00;;;;;;;;;;5020745;28;20050;-79
2022/02/07 15:45:18;;;;;;;5.22;1.75;;;;;;;;;;5020911;28;20042;-80
2022/02/07 15:47:45;;;;;;;6.78;1.90;;;;;;;;;;5034996;28;20095;-79
2022/02/07 15:50:14;;;;;;;5.95;2.08;;;;;;;;;;5024307;28;20045;-78
2022/02/07 15:52:42;;;;;;;5.93;2.00;;;;;;;;;;5031855;28;20057;-78
2022/02/07 15:55:11;;;;;;;4.43;1.80;;;;;;;;;;5025107;28;20417;-79
2022/02/07 15:57:38;;;;;;;6.70;2.10;;;;;;;;;;5025567;28;20053;-77
2022/02/07 16:00:06;;;;;;;6.60;2.35;;;;;;;;;;5026839;28;20091;-79
2022/02/07 16:02:35;;;;;;;7.28;2.13;;;;;;;;;;5032081;28;20395;-80
2022/02/07 16:05:03;;;;;;;6.53;2.08;;;;;;;;;;5034244;28;20072;-79
2022/02/07 16:07:30;;;;;;;6.60;2.17;;;;;;;;;;5037630;28;20064;-78
2022/02/07 16:09:57;;;;;;;7.97;1.95;;;;;;;;;;5037368;28;20390;-78
2022/02/07 16:12:27;;;;;;;4.43;1.85;;;;;;;;;;5037846;28;20045;-79
2022/02/07 16:14:54;;;;;;;5.13;2.45;;;;;;;;;;5037474;28;20057;-80
2022/02/07 16:17:22;;;;;;;7.05;2.13;;;;;;;;;;5028082;28;20044;-78
2022/02/07 16:19:50;;;;;;;9.13;2.88;;;;;;;;;;5025717;28;20517;-79
2022/02/07 16:22:17;;;;;;;8.98;2.45;;;;;;;;;;5032203;28;20412;-79
2022/02/07 16:24:45;;;;;;;7.32;2.35;;;;;;;;;;5031501;28;20056;-79
2022/02/07 16:27:13;;;;;;;4.10;2.63;;;;;;;;;;5018312;28;20425;-78
2022/02/07 16:29:41;;;;;;;11.63;2.60;;;;;;;;;;5016983;28;20078;-78
2022/02/07 16:32:08;;;;;;;4.80;1.60;;;;;;;;;;5017050;28;20077;-79
2022/02/07 16:34:35;;;;;;;8.77;2.75;;;;;;;;;;5026431;28;20045;-79
2022/02/07 16:37:03;;;;;;;6.53;2.30;;;;;;;;;;5028951;28;20136;-79
2022/02/07 16:39:30;;;;;;;6.13;1.80;;;;;;;;;;5018829;28;20145;-80
2022/02/07 16:42:00;;;;;;;4.18;1.40;;;;;;;;;;5017780;28;20053;-78
2022/02/07 16:44:27;;;;;;;5.45;2.38;;;;;;;;;;5017687;28;20054;-78
2022/02/07 16:46:55;;;;;;;5.93;1.80;;;;;;;;;;5017003;28;20064;-79
2022/02/07 16:49:26;;;;;;;5.38;2.10;;;;;;;;;;5017711;28;20064;-79